This is the latest recevied weather packets stored in our database for station/object OK1ALX-6. If no packets are shown the sender has not sent any weather packets the latest 10 day(s).
| Time | Temp. | Humidity | Pressure | Rain* | Wind** | Luminosity | Snow |
|---|---|---|---|---|---|---|---|
| 1777528804 | 2.78° C | 57% | 1039.1 hPa | 0 mm | - | 155 W/m² | - |
| 1777528203 | 2.78° C | 57% | 1039.3 hPa | 0 mm | - | 139 W/m² | - |
| 1777527603 | 2.22° C | 60% | 1039.2 hPa | 0 mm | - | 125 W/m² | - |
| 1777527003 | 2.22° C | 59% | 1039.1 hPa | 0 mm | - | 75 W/m² | - |
| 1777526404 | 2.78° C | 61% | 1039.1 hPa | 0 mm | - | 64 W/m² | - |
| 1777525803 | 1.67° C | 65% | 1039.5 hPa | 0 mm | - | 55 W/m² | - |
| 1777525204 | 0° C | 70% | 1039.5 hPa | 0 mm | - | 48 W/m² | - |
| 1777524603 | -0.56° C | 72% | 1039.4 hPa | 0 mm | - | 42 W/m² | - |
| 1777524012 | -0.56° C | 71% | 1039.6 hPa | 0 mm | - | 35 W/m² | - |
| 1777523404 | -1.11° C | 73% | 1039.6 hPa | 0 mm | - | 29 W/m² | - |
| 1777522803 | -1.67° C | 75% | 1039.6 hPa | 0 mm | - | 22 W/m² | - |
| 1777522203 | -2.22° C | 79% | 1039.5 hPa | 0 mm | - | 16 W/m² | - |
| 1777521603 | -2.78° C | 82% | 1039.3 hPa | 0 mm | - | 11 W/m² | - |
| 1777521003 | -3.33° C | 82% | 1039.8 hPa | 0 mm | - | 5 W/m² | - |
| 1777520403 | -3.33° C | 83% | 1039.2 hPa | 0 mm | - | 1 W/m² | - |
| 1777519803 | -3.33° C | 83% | 1039.5 hPa | 0 mm | - | 0 W/m² | - |
| 1777519203 | -3.33° C | 82% | 1039 hPa | 0 mm | - | 0 W/m² | - |
| 1777518603 | -3.33° C | 82% | 1039.3 hPa | 0 mm | - | 0 W/m² | - |
| 1777518004 | -3.33° C | 81% | 1039.3 hPa | 0 mm | - | 0 W/m² | - |
| 1777517403 | -2.78° C | 79% | 1039.2 hPa | 0 mm | - | 0 W/m² | - |
| 1777516804 | -2.78° C | 78% | 1038.9 hPa | 0 mm | - | 0 W/m² | - |
| 1777516203 | -2.22° C | 78% | 1038.9 hPa | 0 mm | - | 0 W/m² | - |
| 1777515603 | -2.22° C | 75% | 1038.6 hPa | 0 mm | - | 0 W/m² | - |
| 1777515003 | -2.22° C | 78% | 1039 hPa | 0 mm | - | 0 W/m² | - |
| 1777514403 | -2.22° C | 77% | 1039 hPa | 0 mm | - | 0 W/m² | - |
* Rain latest hour (hover to see other rain measurements)
** Current wind speed in m/s (hover to see current wind gust speed)